Time;durP1;ratioP1;P1;durP2;ratioP2;P2;SDS_P1;SDS_P2;PMS_P1;PMS_P2;Temp;Humidity;BMP_temperature;BMP_pressure;BME280_temperature;BME280_humidity;BME280_pressure;Samples;Min_cycle;Max_cycle;Signal;HPM_P1;HPM_P2
2024/04/02 00:01:08;;;;;;;5.00;1.90;;;;;;;6.81;100.00;69146.84;5091100;28;20044;-49
2024/04/02 00:03:35;;;;;;;6.68;1.90;;;;;;;6.78;100.00;69143.91;5090568;28;20055;-53
2024/04/02 00:06:01;;;;;;;3.70;1.60;;;;;;;6.79;100.00;69142.50;5091616;28;20127;-49
2024/04/02 00:08:29;;;;;;;3.10;1.50;;;;;;;6.80;100.00;69143.06;5092863;28;20051;-50
2024/04/02 00:11:00;;;;;;;3.78;1.50;;;;;;;6.79;100.00;69144.50;5092234;28;20037;-53
2024/04/02 00:13:28;;;;;;;3.42;1.70;;;;;;;6.77;100.00;69140.72;5092742;28;20082;-47
2024/04/02 00:15:56;;;;;;;4.50;1.52;;;;;;;6.73;100.00;69138.66;5092392;28;20526;-47
2024/04/02 00:18:24;;;;;;;3.50;1.42;;;;;;;6.71;100.00;69133.19;5092582;28;20349;-47
2024/04/02 00:20:50;;;;;;;5.15;1.42;;;;;;;6.74;100.00;69141.84;5092513;28;20047;-46
2024/04/02 00:23:17;;;;;;;4.88;1.52;;;;;;;6.72;100.00;69142.13;5091401;28;20043;-46
2024/04/02 00:25:43;;;;;;;3.88;1.30;;;;;;;6.71;100.00;69138.94;5088843;28;20041;-48
2024/04/02 00:28:12;;;;;;;3.78;1.40;;;;;;;6.70;100.00;69137.22;5090564;28;20052;-47
2024/04/02 00:30:39;;;;;;;3.67;1.40;;;;;;;6.69;100.00;69130.84;5092383;28;20461;-48
2024/04/02 00:33:07;;;;;;;4.05;1.40;;;;;;;6.66;100.00;69133.13;5089947;28;20048;-48
2024/04/02 00:35:33;;;;;;;3.33;1.42;;;;;;;6.64;100.00;69127.63;5088918;28;20044;-47
2024/04/02 00:38:00;;;;;;;2.67;1.55;;;;;;;6.61;100.00;69124.72;5092430;28;20051;-47
2024/04/02 00:40:27;;;;;;;3.15;1.52;;;;;;;6.58;100.00;69121.22;5090983;28;20775;-47
2024/04/02 00:42:54;;;;;;;7.18;1.60;;;;;;;6.55;100.00;69118.31;5089478;28;20090;-46
2024/04/02 00:45:20;;;;;;;4.22;1.10;;;;;;;6.53;100.00;69118.59;5091303;28;20047;-47
2024/04/02 00:47:48;;;;;;;3.33;1.35;;;;;;;6.50;100.00;69111.91;5092033;28;20485;-47
2024/04/02 00:50:15;;;;;;;2.67;1.27;;;;;;;6.51;100.00;69113.66;5092281;28;20522;-48
2024/04/02 00:52:43;;;;;;;4.28;1.60;;;;;;;6.49;100.00;69110.75;5091977;28;20047;-46
2024/04/02 00:55:12;;;;;;;3.88;1.65;;;;;;;6.51;100.00;69110.50;5092087;28;20040;-46
2024/04/02 00:57:39;;;;;;;3.40;1.60;;;;;;;6.50;100.00;69107.31;5091757;28;20101;-48
2024/04/02 01:00:06;;;;;;;2.90;1.40;;;;;;;6.49;100.00;69108.16;5091970;28;20130;-48
2024/04/02 01:02:33;;;;;;;5.30;1.55;;;;;;;6.50;100.00;69109.91;5092100;28;20044;-47
2024/04/02 01:04:59;;;;;;;1.90;1.30;;;;;;;6.50;100.00;69112.50;5091816;28;20040;-46
2024/04/02 01:07:28;;;;;;;3.22;1.45;;;;;;;6.51;100.00;69113.09;5091563;28;20044;-47
2024/04/02 01:09:54;;;;;;;2.97;1.45;;;;;;;6.51;100.00;69113.09;5091744;28;20541;-46
2024/04/02 01:12:21;;;;;;;2.85;1.27;;;;;;;6.51;100.00;69111.06;5092008;28;20056;-47
2024/04/02 01:14:48;;;;;;;4.47;1.60;;;;;;;6.55;100.00;69115.16;5091543;28;20083;-46
2024/04/02 01:17:16;;;;;;;4.25;1.65;;;;;;;6.57;100.00;69125.84;5088624;28;20047;-47
2024/04/02 01:19:42;;;;;;;3.13;1.50;;;;;;;6.59;100.00;69119.81;5088314;28;20059;-47
2024/04/02 01:22:09;;;;;;;6.95;1.80;;;;;;;6.60;100.00;69123.56;5086997;28;20388;-48
2024/04/02 01:24:36;;;;;;;4.55;1.38;;;;;;;6.60;100.00;69120.97;5087452;28;20045;-48
2024/04/02 01:27:05;;;;;;;5.18;1.70;;;;;;;6.60;100.00;69126.16;5090255;28;20552;-47
2024/04/02 01:29:31;;;;;;;4.15;1.30;;;;;;;6.62;100.00;69130.50;5091525;28;20040;-49
2024/04/02 01:31:59;;;;;;;5.00;1.52;;;;;;;6.62;100.00;69125.31;5091100;28;20040;-48
2024/04/02 01:34:25;;;;;;;4.53;1.45;;;;;;;6.59;100.00;69125.00;5090921;28;20059;-50
2024/04/02 01:36:52;;;;;;;2.63;1.40;;;;;;;6.59;100.00;69119.81;5090883;28;20055;-51
2024/04/02 01:39:18;;;;;;;3.08;1.67;;;;;;;6.57;100.00;69120.06;5088776;28;20359;-47
2024/04/02 01:41:45;;;;;;;3.83;1.48;;;;;;;6.55;100.00;69118.31;5088653;28;20089;-52
2024/04/02 01:44:13;;;;;;;3.20;1.65;;;;;;;6.54;100.00;69119.75;5090569;28;20069;-50
2024/04/02 01:46:40;;;;;;;2.47;1.30;;;;;;;6.50;100.00;69112.50;5090606;28;20085;-47
2024/04/02 01:49:06;;;;;;;4.75;1.55;;;;;;;6.49;100.00;69113.94;5088193;28;20487;-51
2024/04/02 01:51:33;;;;;;;5.47;1.65;;;;;;;6.49;100.00;69113.94;5088850;28;20551;-47
2024/04/02 01:53:59;;;;;;;4.97;1.70;;;;;;;6.47;100.00;69106.41;5090593;28;20495;-47
2024/04/02 01:56:26;;;;;;;4.32;1.58;;;;;;;6.45;100.00;69106.69;5090661;28;20176;-47
2024/04/02 01:58:52;;;;;;;4.28;1.67;;;;;;;6.46;100.00;69107.28;5090059;28;20028;-48
2024/04/02 02:01:21;;;;;;;2.10;1.30;;;;;;;6.44;100.00;69108.13;5087936;28;20100;-46
2024/04/02 02:03:47;;;;;;;3.72;1.58;;;;;;;6.42;100.00;69101.19;5088724;28;20040;-48
2024/04/02 02:06:14;;;;;;;3.28;1.42;;;;;;;6.45;100.00;69106.09;5090679;28;20044;-46
2024/04/02 02:08:40;;;;;;;4.20;1.63;;;;;;;6.42;100.00;69103.78;5090658;28;20479;-49
2024/04/02 02:11:07;;;;;;;5.03;1.48;;;;;;;6.41;100.00;69096.84;5090878;28;20058;-48
2024/04/02 02:13:35;;;;;;;4.72;1.70;;;;;;;6.38;100.00;69098.53;5090968;28;20048;-49
2024/04/02 02:16:03;;;;;;;5.07;1.60;;;;;;;6.35;100.00;69095.06;5090670;28;20097;-49
2024/04/02 02:18:31;;;;;;;5.30;1.75;;;;;;;6.35;100.00;69089.88;5090472;28;20483;-48
2024/04/02 02:20:59;;;;;;;3.60;1.30;;;;;;;6.33;100.00;69092.75;5090632;28;20055;-46
2024/04/02 02:23:26;;;;;;;3.63;1.70;;;;;;;6.31;100.00;69090.41;5090526;28;20443;-47
2024/04/02 02:25:53;;;;;;;3.65;1.60;;;;;;;6.25;100.00;69087.16;5090365;28;20495;-48
2024/04/02 02:28:20;;;;;;;3.63;1.55;;;;;;;6.23;100.00;69082.25;5090292;28;20043;-47
2024/04/02 02:30:47;;;;;;;4.63;1.48;;;;;;;6.24;100.00;69086.03;5089186;28;20479;-49
2024/04/02 02:33:13;;;;;;;5.57;1.98;;;;;;;6.21;100.00;69077.34;5086784;28;20558;-47
2024/04/02 02:35:41;;;;;;;5.22;1.73;;;;;;;6.21;100.00;69081.94;5088530;28;20495;-48
2024/04/02 02:38:07;;;;;;;3.80;1.55;;;;;;;6.20;100.00;69081.38;5090534;28;20059;-46
2024/04/02 02:40:34;;;;;;;5.32;1.67;;;;;;;6.16;100.00;69074.13;5090164;28;20185;-47
2024/04/02 02:43:00;;;;;;;7.38;1.63;;;;;;;6.16;100.00;69074.13;5089396;28;20048;-46
2024/04/02 02:45:28;;;;;;;2.90;1.55;;;;;;;6.14;100.00;69069.19;5087261;28;20043;-47
2024/04/02 02:47:54;;;;;;;6.07;2.03;;;;;;;6.19;100.00;69074.44;5086617;28;20036;-48
2024/04/02 02:50:21;;;;;;;3.90;1.80;;;;;;;6.15;100.00;69072.38;5086980;28;20052;-49
2024/04/02 02:52:48;;;;;;;4.47;1.70;;;;;;;6.15;100.00;69075.56;5085347;28;20083;-49
2024/04/02 02:55:15;;;;;;;4.90;1.70;;;;;;;6.15;100.00;69072.97;5089091;28;20051;-50
2024/04/02 02:57:42;;;;;;;5.22;1.70;;;;;;;6.12;100.00;69072.06;5073203;28;20049;-50
2024/04/02 03:00:10;;;;;;;5.00;1.88;;;;;;;6.10;100.00;69069.72;5073310;28;20113;-49
2024/04/02 03:02:36;;;;;;;3.22;1.58;;;;;;;6.13;100.00;69070.06;5090075;28;20125;-49
2024/04/02 03:05:04;;;;;;;5.78;1.77;;;;;;;6.11;100.00;69065.13;5090119;28;20051;-48
2024/04/02 03:07:30;;;;;;;5.60;2.40;;;;;;;6.09;100.00;69071.16;5089772;28;20054;-48
2024/04/02 03:09:58;;;;;;;5.07;1.90;;;;;;;6.07;100.00;69059.06;5086247;28;20036;-51
2024/04/02 03:12:25;;;;;;;7.90;1.67;;;;;;;6.06;100.00;69059.91;5088092;28;20679;-49
2024/04/02 03:14:52;;;;;;;7.43;2.10;;;;;;;6.04;100.00;69060.75;5090016;28;20490;-50
2024/04/02 03:17:18;;;;;;;3.72;1.70;;;;;;;6.04;100.00;69057.56;5089839;28;20516;-50
2024/04/02 03:19:45;;;;;;;4.70;1.75;;;;;;;6.03;100.00;69059.00;5089550;28;20042;-49
2024/04/02 03:22:11;;;;;;;5.55;1.90;;;;;;;6.02;100.00;69057.84;5089903;28;20495;-47
2024/04/02 03:24:39;;;;;;;3.97;1.73;;;;;;;6.02;100.00;69055.25;5073154;28;20056;-51
2024/04/02 03:27:07;;;;;;;6.47;1.98;;;;;;;5.99;100.00;69051.78;5089547;28;20040;-49
2024/04/02 03:29:34;;;;;;;3.67;1.83;;;;;;;5.96;100.00;69048.84;5089310;28;20048;-47
2024/04/02 03:32:00;;;;;;;3.42;1.80;;;;;;;5.94;100.00;69046.50;5089536;28;20051;-47
2024/04/02 03:34:27;;;;;;;5.95;1.83;;;;;;;5.93;100.00;69045.94;5089612;28;20502;-46
2024/04/02 03:36:53;;;;;;;4.28;1.83;;;;;;;5.95;100.00;69044.50;5089225;28;20040;-48
2024/04/02 03:39:21;;;;;;;5.53;1.80;;;;;;;5.96;100.00;69048.25;5102691;28;20036;-46
2024/04/02 03:41:48;;;;;;;5.60;1.65;;;;;;;5.93;100.00;69045.34;5087510;28;20483;-47
2024/04/02 03:44:17;;;;;;;3.58;1.70;;;;;;;5.91;100.00;69043.03;5089745;28;20048;-47
2024/04/02 03:46:44;;;;;;;4.75;2.00;;;;;;;5.88;100.00;69039.53;5091012;28;20523;-48
2024/04/02 03:49:10;;;;;;;5.00;1.80;;;;;;;5.86;100.00;69040.38;5076349;28;20044;-47
2024/04/02 03:51:37;;;;;;;5.43;2.33;;;;;;;5.86;100.00;69042.97;5093499;28;20547;-48
2024/04/02 03:54:04;;;;;;;7.53;2.13;;;;;;;5.86;100.00;69037.78;5093289;28;20085;-48
2024/04/02 03:56:33;;;;;;;4.80;1.60;;;;;;;5.89;100.00;69046.47;5093125;28;20384;-46
2024/04/02 03:58:59;;;;;;;4.22;1.70;;;;;;;5.84;100.00;69040.63;5090898;28;20043;-47
2024/04/02 04:01:28;;;;;;;6.50;2.10;;;;;;;5.83;100.00;69039.47;5090494;28;20047;-47
2024/04/02 04:03:54;;;;;;;6.18;1.85;;;;;;;5.82;100.00;69038.31;5092365;28;20044;-46
2024/04/02 04:06:21;;;;;;;5.63;2.05;;;;;;;5.80;100.00;69032.81;5093039;28;20047;-46
2024/04/02 04:08:47;;;;;;;5.53;2.00;;;;;;;5.80;100.00;69027.66;5092662;28;20044;-47
2024/04/02 04:11:14;;;;;;;4.70;1.67;;;;;;;5.78;100.00;69025.91;5093021;28;20143;-48
2024/04/02 04:13:40;;;;;;;4.55;1.90;;;;;;;5.74;100.00;69027.00;5092930;28;20040;-46
2024/04/02 04:16:08;;;;;;;5.20;2.33;;;;;;;5.74;100.00;69023.84;5092889;28;20050;-46
2024/04/02 04:18:35;;;;;;;6.47;1.92;;;;;;;5.73;100.00;69025.25;5092662;28;20475;-47
2024/04/02 04:21:04;;;;;;;6.00;1.80;;;;;;;5.73;100.00;69022.69;5092723;28;20517;-46
2024/04/02 04:23:30;;;;;;;4.63;1.98;;;;;;;5.73;100.00;69023.25;5092673;28;20387;-48
2024/04/02 04:25:58;;;;;;;6.35;2.10;;;;;;;5.76;100.00;69023.56;5092461;28;20036;-48
2024/04/02 04:28:25;;;;;;;4.80;1.65;;;;;;;5.74;100.00;69023.84;5092388;28;20055;-48
2024/04/02 04:30:55;;;;;;;4.65;1.77;;;;;;;5.73;100.00;69022.69;5075529;28;20056;-45
2024/04/02 04:33:22;;;;;;;6.90;2.08;;;;;;;5.72;100.00;69021.50;5092202;28;20094;-48
2024/04/02 04:35:51;;;;;;;7.05;2.25;;;;;;;5.73;100.00;69025.25;5088877;28;20036;-48
2024/04/02 04:38:18;;;;;;;6.63;2.17;;;;;;;5.73;100.00;69025.25;5089790;28;20044;-51
2024/04/02 04:40:46;;;;;;;4.18;1.80;;;;;;;5.74;100.00;69026.44;5092058;28;20084;-49
2024/04/02 04:43:15;;;;;;;5.75;2.20;;;;;;;5.75;100.00;69030.16;5092433;28;20047;-48
2024/04/02 04:45:50;;;;;;;4.97;1.65;;;;;;;5.74;100.00;69026.44;5092221;28;20383;-48
2024/04/02 04:48:16;;;;;;;6.97;2.03;;;;;;;5.72;100.00;69022.09;5092065;28;20051;-50
2024/04/02 04:50:43;;;;;;;9.35;2.50;;;;;;;5.71;100.00;69023.53;5075300;28;20110;-49
2024/04/02 04:53:11;;;;;;;7.75;1.95;;;;;;;5.72;100.00;69018.91;5092141;28;20077;-47
2024/04/02 04:55:38;;;;;;;7.00;1.92;;;;;;;5.71;100.00;69020.34;5091821;28;20051;-49
2024/04/02 04:58:04;;;;;;;5.57;2.17;;;;;;;5.73;100.00;69020.09;5091670;28;20404;-51
2024/04/02 05:00:31;;;;;;;6.80;2.00;;;;;;;5.76;100.00;69028.75;5075011;28;20096;-46
2024/04/02 05:02:57;;;;;;;5.90;1.90;;;;;;;5.82;100.00;69035.13;5091546;28;20040;-46
2024/04/02 05:05:24;;;;;;;8.48;2.17;;;;;;;5.81;100.00;69031.97;5091598;28;20044;-46
2024/04/02 05:08:14;;;;;;;6.25;2.10;;;;;;;5.84;100.00;69037.47;5089333;28;20036;-46
2024/04/02 05:10:45;;;;;;;6.72;2.30;;;;;;;5.86;100.00;69039.78;5088949;28;20059;-46
2024/04/02 05:13:11;;;;;;;6.65;2.15;;;;;;;5.95;100.00;69049.69;5091011;28;20078;-46
2024/04/02 05:15:38;;;;;;;6.68;2.15;;;;;;;6.02;100.00;69057.84;5088697;28;20036;-47
2024/04/02 05:18:06;;;;;;;6.53;2.13;;;;;;;6.02;100.00;69058.41;5089517;28;20048;-48
2024/04/02 05:20:33;;;;;;;5.28;1.80;;;;;;;6.04;100.00;69060.16;5074570;28;20058;-47
2024/04/02 05:22:59;;;;;;;5.82;2.00;;;;;;;6.09;100.00;69066.56;5091436;28;20048;-47
2024/04/02 05:25:26;;;;;;;6.10;2.33;;;;;;;6.15;100.00;69070.38;5091402;28;20043;-46
2024/04/02 05:27:54;;;;;;;6.05;2.05;;;;;;;6.17;100.00;69075.28;5091492;28;20134;-48
2024/04/02 05:30:21;;;;;;;5.88;2.30;;;;;;;6.20;100.00;69073.00;5091145;28;20051;-47
2024/04/02 05:32:47;;;;;;;4.13;2.00;;;;;;;6.23;100.00;69081.66;5091022;28;20632;-46
2024/04/02 05:35:15;;;;;;;4.72;2.00;;;;;;;6.24;100.00;69083.44;5091311;28;20524;-46
2024/04/02 05:37:41;;;;;;;5.70;2.17;;;;;;;6.30;100.00;69089.22;5104175;28;20047;-46
2024/04/02 05:40:08;;;;;;;7.20;2.00;;;;;;;6.33;100.00;69090.16;5087897;28;20044;-46
2024/04/02 05:42:35;;;;;;;5.35;2.08;;;;;;;6.39;100.00;69102.28;5074016;28;20113;-48
2024/04/02 05:45:04;;;;;;;7.10;1.90;;;;;;;6.41;100.00;69102.63;5091188;28;20044;-47
2024/04/02 05:47:30;;;;;;;6.32;2.20;;;;;;;6.54;100.00;69116.56;5090940;28;20058;-47
2024/04/02 05:49:57;;;;;;;7.68;2.40;;;;;;;6.57;100.00;69118.06;5090918;28;20486;-47
2024/04/02 05:52:23;;;;;;;6.38;2.22;;;;;;;6.58;100.00;69121.81;5090736;28;20501;-47
2024/04/02 05:54:51;;;;;;;7.28;2.20;;;;;;;6.62;100.00;69122.72;5090183;28;20040;-47
2024/04/02 05:57:17;;;;;;;4.28;2.10;;;;;;;6.69;100.00;69130.84;5087911;28;20052;-49
2024/04/02 05:59:44;;;;;;;7.45;2.40;;;;;;;6.71;100.00;69138.38;5088834;28;20505;-47
2024/04/02 06:02:12;;;;;;;5.65;2.17;;;;;;;6.74;100.00;69141.84;5090775;28;20083;-49
2024/04/02 06:04:39;;;;;;;8.65;2.40;;;;;;;6.79;100.00;69147.69;5088018;28;20468;-49
2024/04/02 06:07:05;;;;;;;5.20;2.20;;;;;;;6.81;100.00;69147.41;5086552;28;20055;-46
2024/04/02 06:09:32;;;;;;;7.03;2.42;;;;;;;6.86;100.00;69150.06;5089935;28;20499;-46
2024/04/02 06:11:58;;;;;;;5.70;2.30;;;;;;;6.87;100.00;69156.41;5090580;28;20083;-49
2024/04/02 06:14:26;;;;;;;7.78;2.38;;;;;;;6.91;100.00;69156.47;5073685;28;20048;-48
2024/04/02 06:16:52;;;;;;;8.57;2.55;;;;;;;6.94;100.00;69159.38;5090419;28;20056;-47
2024/04/02 06:19:20;;;;;;;6.82;2.60;;;;;;;6.97;100.00;69162.25;5087673;28;20052;-49
2024/04/02 06:21:46;;;;;;;6.22;2.50;;;;;;;7.04;100.00;69170.41;5087378;28;20040;-52
2024/04/02 06:24:14;;;;;;;6.35;2.47;;;;;;;7.06;100.00;69175.34;5089319;28;20508;-49
2024/04/02 06:26:41;;;;;;;8.18;2.67;;;;;;;7.11;100.00;69181.16;5087269;28;20048;-51
2024/04/02 06:29:08;;;;;;;11.63;2.38;;;;;;;7.15;100.00;69180.63;5089022;28;20415;-51
2024/04/02 06:31:34;;;;;;;9.10;2.35;;;;;;;7.18;100.00;69188.72;5071520;28;20054;-51
2024/04/02 06:34:01;;;;;;;13.85;2.88;;;;;;;7.24;100.00;69193.09;5087002;28;20089;-53
2024/04/02 06:36:29;;;;;;;7.43;2.75;;;;;;;7.31;100.00;69203.25;5089781;28;20097;-54
2024/04/02 06:38:56;;;;;;;8.25;2.97;;;;;;;7.36;100.00;69209.09;5085988;28;20044;-51
2024/04/02 06:41:23;;;;;;;7.85;3.10;;;;;;;7.39;100.00;69215.16;5087450;28;20689;-49
2024/04/02 06:43:51;;;;;;;11.48;2.78;;;;;;;7.43;100.00;69215.22;5087168;28;20101;-49
2024/04/02 06:46:17;;;;;;;7.50;2.60;;;;;;;7.54;100.00;69229.47;5089736;28;20044;-49
2024/04/02 06:48:44;;;;;;;7.15;2.60;;;;;;;7.64;100.00;69241.13;5089998;28;20054;-49
2024/04/02 06:51:11;;;;;;;7.07;2.35;;;;;;;7.72;100.00;69250.44;5090397;28;20499;-50
2024/04/02 06:53:39;;;;;;;8.38;2.75;;;;;;;7.81;100.00;69260.31;5090104;28;20372;-50
2024/04/02 06:56:07;;;;;;;10.38;2.67;;;;;;;7.86;100.00;69271.34;5090080;28;20058;-49
2024/04/02 06:58:33;;;;;;;7.55;2.30;;;;;;;7.93;100.00;69271.13;5089980;28;20122;-49
2024/04/02 07:01:03;;;;;;;7.65;2.50;;;;;;;8.00;100.00;69278.69;5073218;28;20539;-51
2024/04/02 07:03:29;;;;;;;10.02;3.28;;;;;;;8.02;100.00;69281.59;5087003;28;20066;-49
2024/04/02 07:05:59;;;;;;;11.13;2.72;;;;;;;8.08;100.00;69290.59;5086349;28;20534;-48
2024/04/02 07:08:25;;;;;;;8.25;2.78;;;;;;;8.10;100.00;69290.34;5087306;28;20036;-47
2024/04/02 07:11:03;;;;;;;9.30;2.72;;;;;;;8.18;100.00;69299.06;5089864;28;20031;-47
2024/04/02 07:13:29;;;;;;;7.50;2.53;;;;;;;8.20;100.00;69306.59;5089674;28;20054;-47
2024/04/02 07:15:56;;;;;;;11.98;2.95;;;;;;;8.23;100.00;69310.66;5089980;28;20491;-46
2024/04/02 07:18:22;;;;;;;6.25;2.70;;;;;;;8.28;100.00;69311.31;5073170;28;20048;-47
2024/04/02 07:21:00;;;;;;;9.60;3.00;;;;;;;8.36;100.00;69320.03;5073024;28;20070;-47
2024/04/02 07:23:26;;;;;;;15.38;3.42;;;;;;;8.41;100.00;69323.28;5093895;28;20422;-48
2024/04/02 07:25:53;;;;;;;10.85;3.10;;;;;;;8.42;100.00;69327.03;5093859;28;20036;-50
2024/04/02 07:28:21;;;;;;;9.18;2.63;;;;;;;8.48;100.00;69336.06;5093597;28;20046;-50
2024/04/02 07:30:51;;;;;;;9.65;2.95;;;;;;;8.52;100.00;69337.53;5090729;28;20119;-48
2024/04/02 07:33:17;;;;;;;12.32;3.50;;;;;;;8.55;100.00;69341.63;5090640;28;20551;-46
2024/04/02 07:35:45;;;;;;;9.18;3.38;;;;;;;8.53;100.00;69336.69;5089795;28;20040;-48
2024/04/02 07:38:12;;;;;;;12.20;3.15;;;;;;;8.61;100.00;69346.00;5092647;28;20048;-46
2024/04/02 07:40:39;;;;;;;14.52;3.55;;;;;;;8.61;100.00;69350.63;5093557;28;20395;-47
2024/04/02 07:43:06;;;;;;;10.38;2.88;;;;;;;8.65;100.00;69354.72;5093605;28;20055;-48
2024/04/02 07:45:34;;;;;;;11.98;3.00;;;;;;;8.67;100.00;69357.03;5093538;28;20055;-46
2024/04/02 07:48:00;;;;;;;11.23;3.20;;;;;;;8.70;100.00;69360.53;5093514;28;20043;-48
2024/04/02 07:50:31;;;;;;;15.55;3.60;;;;;;;8.67;100.00;69355.03;5093181;28;20036;-50
2024/04/02 07:52:57;;;;;;;11.45;3.22;;;;;;;8.73;100.00;69366.66;5093310;28;20046;-50
2024/04/02 07:55:25;;;;;;;12.10;3.50;;;;;;;8.75;100.00;69363.75;5093014;28;20044;-50
2024/04/02 07:57:52;;;;;;;10.90;3.42;;;;;;;8.78;100.00;69369.84;5093370;28;20043;-48
2024/04/02 08:00:18;;;;;;;12.07;3.00;;;;;;;8.80;100.00;69369.59;5093628;28;20044;-47
2024/04/02 08:02:47;;;;;;;12.63;3.03;;;;;;;8.78;100.00;69370.44;5093223;28;20069;-50
2024/04/02 08:05:14;;;;;;;13.25;2.92;;;;;;;8.80;100.00;69372.78;5073717;28;20044;-49
2024/04/02 08:07:41;;;;;;;9.43;3.05;;;;;;;8.83;100.00;69375.69;5089118;28;20036;-48
2024/04/02 08:10:08;;;;;;;9.57;2.95;;;;;;;8.85;100.00;69375.44;5092908;28;20071;-48
2024/04/02 08:12:37;;;;;;;9.93;3.10;;;;;;;8.90;100.00;69378.06;5109600;28;20067;-47
2024/04/02 08:15:04;;;;;;;11.90;2.75;;;;;;;8.94;100.00;69387.91;5092728;28;20039;-51
2024/04/02 08:17:31;;;;;;;11.77;2.67;;;;;;;8.98;100.00;69389.97;5092622;28;20044;-48
2024/04/02 08:19:59;;;;;;;12.95;2.40;;;;;;;9.01;100.00;69392.91;5090200;28;20548;-49
2024/04/02 08:22:26;;;;;;;9.40;2.53;;;;;;;9.04;100.00;69399.59;5088805;28;20044;-50
2024/04/02 08:24:53;;;;;;;11.63;2.50;;;;;;;9.04;100.00;69397.00;5089323;28;20047;-49
2024/04/02 08:27:23;;;;;;;10.75;2.30;;;;;;;9.07;100.00;69402.50;5090363;28;20506;-52
2024/04/02 08:29:49;;;;;;;13.70;2.80;;;;;;;9.08;100.00;69403.66;5072624;28;20048;-52
2024/04/02 08:32:16;;;;;;;14.25;2.80;;;;;;;9.13;100.00;69404.88;5091005;28;20036;-47
2024/04/02 08:34:42;;;;;;;11.35;2.85;;;;;;;9.12;100.00;69405.72;5089029;28;20055;-46
2024/04/02 08:37:11;;;;;;;12.90;3.08;;;;;;;9.17;100.00;69408.38;5088784;28;20043;-50
2024/04/02 08:39:37;;;;;;;12.38;2.33;;;;;;;9.21;100.00;69416.22;5092532;28;20040;-48
2024/04/02 08:42:06;;;;;;;11.77;2.22;;;;;;;9.18;100.00;69415.31;5092377;28;20097;-47
2024/04/02 08:44:34;;;;;;;12.20;2.10;;;;;;;9.20;100.00;69419.69;5092497;28;20044;-48
2024/04/02 08:47:01;;;;;;;10.82;2.38;;;;;;;9.20;100.00;69412.44;5075353;28;20502;-47
2024/04/02 08:49:28;;;;;;;10.23;2.05;;;;;;;9.21;100.00;69421.41;5092042;28;20451;-48
2024/04/02 08:51:55;;;;;;;8.23;2.22;;;;;;;9.25;100.00;69426.09;5088453;28;20138;-47
2024/04/02 08:54:23;;;;;;;14.05;2.50;;;;;;;9.34;100.00;69430.19;5107159;28;20036;-46
2024/04/02 08:56:50;;;;;;;11.75;2.58;;;;;;;9.38;100.00;69432.84;5092022;28;20104;-47
2024/04/02 08:59:16;;;;;;;7.05;2.00;;;;;;;9.42;100.00;69442.13;5092087;28;20040;-48
2024/04/02 09:01:45;;;;;;;10.75;2.10;;;;;;;9.46;100.00;69446.78;5091971;28;20506;-48
2024/04/02 09:04:12;;;;;;;8.95;2.38;;;;;;;9.53;100.00;69452.38;5075015;28;20146;-54
2024/04/02 09:06:39;;;;;;;7.63;2.10;;;;;;;9.58;100.00;69463.41;5091850;28;20431;-55
2024/04/02 09:09:05;;;;;;;7.95;2.03;;;;;;;9.64;100.00;69465.19;5089991;28;20044;-53
2024/04/02 09:11:35;;;;;;;13.10;3.08;;;;;;;9.68;100.00;69468.69;5088505;28;20491;-54
2024/04/02 09:14:02;;;;;;;10.65;2.30;;;;;;;9.73;100.00;69475.09;5090162;28;20032;-53
2024/04/02 09:16:33;;;;;;;13.32;2.75;;;;;;;9.80;100.00;69478.06;5091777;28;20951;-52
2024/04/02 09:18:59;;;;;;;15.23;2.30;;;;;;;9.86;100.00;69491.69;5090584;28;20047;-53
2024/04/02 09:21:27;;;;;;;14.30;2.13;;;;;;;9.98;100.00;69506.28;5088675;28;20054;-54
2024/04/02 09:23:54;;;;;;;9.50;2.53;;;;;;;10.04;100.00;69514.75;5089558;28;20051;-54
2024/04/02 09:26:23;;;;;;;10.73;2.42;;;;;;;10.11;100.00;69520.88;5090102;28;20050;-54
2024/04/02 09:28:50;;;;;;;11.02;2.88;;;;;;;10.17;100.00;69527.31;5088441;28;20044;-55
2024/04/02 09:31:18;;;;;;;13.02;2.20;;;;;;;10.17;100.00;69527.31;5090847;28;20040;-54
2024/04/02 09:33:48;;;;;;;11.00;2.33;;;;;;;10.27;100.00;69538.97;5090779;28;20044;-54
2024/04/02 09:36:37;;;;;;;13.45;2.10;;;;;;;10.37;100.00;69552.66;5087199;28;20154;-55
2024/04/02 09:39:05;;;;;;;13.30;2.22;;;;;;;10.44;100.00;69555.03;5089594;28;20502;-54
2024/04/02 09:41:32;;;;;;;8.13;1.90;;;;;;;10.49;100.00;69563.50;5091110;28;20040;-53
2024/04/02 09:44:01;;;;;;;11.73;2.45;;;;;;;10.57;100.00;69572.25;5090174;28;20525;-55
2024/04/02 09:46:30;;;;;;;10.85;1.98;;;;;;;10.61;100.00;69569.66;5090001;28;20036;-53
2024/04/02 09:48:58;;;;;;;13.93;1.80;;;;;;;10.64;100.00;69581.00;5087500;28;20410;-53
2024/04/02 09:51:27;;;;;;;11.68;2.60;;;;;;;10.69;100.00;69585.66;5090039;28;20028;-53
2024/04/02 09:53:55;;;;;;;8.05;1.52;;;;;;;10.81;100.00;69597.06;5087541;28;20101;-55
2024/04/02 09:56:24;;;;;;;6.75;1.98;;;;;;;10.91;100.00;69606.13;5088280;28;20344;-55
2024/04/02 09:58:50;;;;;;;10.02;2.15;;;;;;;11.05;100.00;69623.91;5090239;28;20047;-54
2024/04/02 10:01:27;;;;;;;11.50;2.20;;;;;;;11.18;100.00;69638.50;5070710;28;20040;-54
2024/04/02 10:03:57;;;;;;;13.88;2.83;;;;;;;11.39;100.00;69667.69;5089680;28;20519;-54
2024/04/02 10:06:25;;;;;;;12.13;2.20;;;;;;;11.46;100.00;69670.63;5086891;28;20059;-55
2024/04/02 10:08:59;;;;;;;9.68;1.60;;;;;;;11.47;100.00;69672.38;5087617;28;20395;-54
2024/04/02 10:11:37;;;;;;;8.57;2.20;;;;;;;11.56;100.00;69676.50;5090765;28;20471;-55
2024/04/02 10:14:05;;;;;;;8.15;1.58;;;;;;;11.58;100.00;69682.03;5090932;28;20506;-54
2024/04/02 10:16:35;;;;;;;6.93;1.73;;;;;;;11.96;100.00;69725.28;5090767;28;20354;-55
2024/04/02 10:19:01;;;;;;;10.60;1.98;;;;;;;12.38;100.00;69772.59;5090698;28;20040;-55
2024/04/02 10:21:31;;;;;;;5.80;1.30;;;;;;;12.73;100.00;69814.38;5090467;28;20448;-55
2024/04/02 10:23:58;;;;;;;9.65;2.10;;;;;;;12.69;100.00;69807.66;5086197;28;20040;-54
2024/04/02 10:26:32;;;;;;;7.45;1.65;;;;;;;12.73;100.00;69814.38;5087530;28;20055;-55
2024/04/02 10:28:58;;;;;;;13.38;2.10;;;;;;;12.89;100.00;69833.06;5086597;28;20040;-54
2024/04/02 10:31:37;;;;;;;9.70;2.10;;;;;;;12.93;100.00;69831.94;5087869;28;20036;-55
2024/04/02 10:34:07;;;;;;;5.88;1.58;;;;;;;12.97;100.00;69839.22;5089747;28;20052;-47
2024/04/02 10:36:35;;;;;;;10.35;1.90;;;;;;;13.05;100.00;69848.59;5086550;28;20044;-48
2024/04/02 10:39:01;;;;;;;9.63;2.05;;;;;;;12.85;100.00;69823.16;5085950;28;20051;-48
2024/04/02 10:41:31;;;;;;;8.75;2.00;;;;;;;12.89;100.00;69830.47;5087615;28;20544;-48
2024/04/02 10:43:58;;;;;;;7.35;1.50;;;;;;;12.81;100.00;69821.69;5089844;28;20437;-54
2024/04/02 10:46:28;;;;;;;7.72;1.50;;;;;;;12.51;100.00;69784.59;5090585;28;20090;-54
2024/04/02 10:49:00;;;;;;;6.25;1.40;;;;;;;12.41;100.00;69773.47;5090394;28;20499;-54
2024/04/02 10:51:29;;;;;;;5.95;1.60;;;;;;;12.41;100.00;69775.53;5090639;28;20028;-54
2024/04/02 10:53:56;;;;;;;9.43;1.90;;;;;;;12.29;100.00;69759.47;5090458;28;20528;-55
2024/04/02 10:56:25;;;;;;;6.50;1.90;;;;;;;12.18;100.00;69758.22;5093194;28;20075;-55
2024/04/02 10:58:52;;;;;;;8.82;2.33;;;;;;;12.09;100.00;69737.28;5092333;28;20051;-55
2024/04/02 11:01:22;;;;;;;7.20;2.08;;;;;;;12.15;100.00;69746.31;5091658;28;20089;-54
2024/04/02 11:03:50;;;;;;;9.95;1.70;;;;;;;11.93;100.00;69723.75;5094185;28;20067;-54
2024/04/02 11:06:19;;;;;;;8.70;2.15;;;;;;;11.90;100.00;69720.25;5092823;28;20036;-54
2024/04/02 11:08:48;;;;;;;6.65;1.52;;;;;;;11.89;100.00;69722.31;5090383;28;20415;-54
2024/04/02 11:11:20;;;;;;;6.43;1.50;;;;;;;11.79;100.00;69711.22;5092835;28;20055;-54
2024/04/02 11:13:46;;;;;;;8.68;1.80;;;;;;;11.68;100.00;69695.72;5094370;28;20044;-55
2024/04/02 11:16:16;;;;;;;8.18;2.03;;;;;;;11.61;100.00;69685.53;5093927;28;20044;-54
2024/04/02 11:18:42;;;;;;;7.03;1.80;;;;;;;11.55;100.00;69675.91;5091229;28;20082;-54
2024/04/02 11:21:15;;;;;;;5.88;1.80;;;;;;;11.45;100.00;69672.06;5091966;28;20089;-54
2024/04/02 11:26:28;;;;;;;6.63;1.90;;;;;;;11.34;100.00;69662.41;5091222;28;19927;-54
2024/04/02 11:29:04;;;;;;;7.05;1.83;;;;;;;11.30;100.00;69653.13;5090963;28;20043;-55
2024/04/02 11:31:31;;;;;;;5.68;1.90;;;;;;;11.31;100.00;69654.25;5092501;28;20434;-55
2024/04/02 11:34:02;;;;;;;6.78;1.60;;;;;;;11.29;100.00;69649.31;5093970;28;20047;-53